sensor_id;sensor_type;location;lat;lon;timestamp;P1;durP1;ratioP1;P2;durP2;ratioP2
10007;SDS011;5043;41.766;26.204;2023-01-10T00:01:56;34.78;;;23.45;;
10007;SDS011;5043;41.766;26.204;2023-01-10T00:04:23;34.23;;;24.33;;
10007;SDS011;5043;41.766;26.204;2023-01-10T00:06:53;31.23;;;23.13;;
10007;SDS011;5043;41.766;26.204;2023-01-10T00:09:19;31.83;;;22.15;;
10007;SDS011;5043;41.766;26.204;2023-01-10T00:11:45;31.30;;;22.60;;
10007;SDS011;5043;41.766;26.204;2023-01-10T00:14:29;31.63;;;22.67;;
10007;SDS011;5043;41.766;26.204;2023-01-10T00:16:54;32.90;;;23.73;;
10007;SDS011;5043;41.766;26.204;2023-01-10T00:19:20;31.25;;;22.98;;
10007;SDS011;5043;41.766;26.204;2023-01-10T00:21:46;31.02;;;23.30;;
10007;SDS011;5043;41.766;26.204;2023-01-10T00:24:11;32.13;;;22.38;;
10007;SDS011;5043;41.766;26.204;2023-01-10T00:26:46;35.57;;;24.17;;
10007;SDS011;5043;41.766;26.204;2023-01-10T00:29:16;32.33;;;22.48;;
10007;SDS011;5043;41.766;26.204;2023-01-10T00:31:49;33.70;;;23.97;;
10007;SDS011;5043;41.766;26.204;2023-01-10T00:34:15;37.70;;;25.40;;
10007;SDS011;5043;41.766;26.204;2023-01-10T00:36:40;33.37;;;24.93;;
10007;SDS011;5043;41.766;26.204;2023-01-10T00:39:06;35.92;;;24.38;;
10007;SDS011;5043;41.766;26.204;2023-01-10T00:41:34;35.77;;;25.27;;
10007;SDS011;5043;41.766;26.204;2023-01-10T00:44:18;36.70;;;25.57;;
10007;SDS011;5043;41.766;26.204;2023-01-10T00:46:44;44.90;;;29.52;;
10007;SDS011;5043;41.766;26.204;2023-01-10T00:49:09;40.92;;;28.52;;
10007;SDS011;5043;41.766;26.204;2023-01-10T00:51:37;42.28;;;28.52;;
10007;SDS011;5043;41.766;26.204;2023-01-10T00:54:03;43.00;;;28.60;;
10007;SDS011;5043;41.766;26.204;2023-01-10T00:56:28;51.83;;;29.73;;
10007;SDS011;5043;41.766;26.204;2023-01-10T00:58:54;43.40;;;30.40;;
10007;SDS011;5043;41.766;26.204;2023-01-10T01:01:19;44.20;;;30.67;;
10007;SDS011;5043;41.766;26.204;2023-01-10T01:03:45;39.88;;;29.23;;
10007;SDS011;5043;41.766;26.204;2023-01-10T01:06:10;50.30;;;31.90;;
10007;SDS011;5043;41.766;26.204;2023-01-10T01:08:36;47.92;;;30.67;;
10007;SDS011;5043;41.766;26.204;2023-01-10T01:11:01;45.67;;;30.37;;
10007;SDS011;5043;41.766;26.204;2023-01-10T01:13:27;50.40;;;32.97;;
10007;SDS011;5043;41.766;26.204;2023-01-10T01:15:55;52.13;;;33.80;;
10007;SDS011;5043;41.766;26.204;2023-01-10T01:18:22;53.43;;;34.47;;
10007;SDS011;5043;41.766;26.204;2023-01-10T01:20:51;57.17;;;36.43;;
10007;SDS011;5043;41.766;26.204;2023-01-10T01:23:17;55.13;;;35.07;;
10007;SDS011;5043;41.766;26.204;2023-01-10T01:25:43;54.90;;;36.20;;
10007;SDS011;5043;41.766;26.204;2023-01-10T01:28:10;56.42;;;34.53;;
10007;SDS011;5043;41.766;26.204;2023-01-10T01:30:36;60.72;;;36.00;;
10007;SDS011;5043;41.766;26.204;2023-01-10T01:33:02;56.05;;;36.05;;
10007;SDS011;5043;41.766;26.204;2023-01-10T01:35:28;63.17;;;36.97;;
10007;SDS011;5043;41.766;26.204;2023-01-10T01:37:53;55.47;;;35.73;;
10007;SDS011;5043;41.766;26.204;2023-01-10T01:40:20;51.35;;;35.05;;
10007;SDS011;5043;41.766;26.204;2023-01-10T01:42:47;58.83;;;38.85;;
10007;SDS011;5043;41.766;26.204;2023-01-10T01:47:49;59.10;;;38.37;;
10007;SDS011;5043;41.766;26.204;2023-01-10T01:53:05;58.13;;;38.23;;
10007;SDS011;5043;41.766;26.204;2023-01-10T01:55:36;57.05;;;36.60;;
10007;SDS011;5043;41.766;26.204;2023-01-10T01:58:03;62.83;;;39.40;;
10007;SDS011;5043;41.766;26.204;2023-01-10T02:00:33;64.90;;;38.87;;
10007;SDS011;5043;41.766;26.204;2023-01-10T02:02:59;69.28;;;41.28;;
10007;SDS011;5043;41.766;26.204;2023-01-10T02:05:26;79.17;;;47.10;;
10007;SDS011;5043;41.766;26.204;2023-01-10T02:07:53;65.57;;;40.60;;
10007;SDS011;5043;41.766;26.204;2023-01-10T02:13:13;65.60;;;40.97;;
10007;SDS011;5043;41.766;26.204;2023-01-10T02:15:39;69.33;;;39.53;;
10007;SDS011;5043;41.766;26.204;2023-01-10T02:18:05;72.93;;;40.30;;
10007;SDS011;5043;41.766;26.204;2023-01-10T02:20:36;68.53;;;41.03;;
10007;SDS011;5043;41.766;26.204;2023-01-10T02:28:50;65.50;;;40.33;;
10007;SDS011;5043;41.766;26.204;2023-01-10T02:37:13;66.70;;;41.13;;
10007;SDS011;5043;41.766;26.204;2023-01-10T02:42:18;63.42;;;40.00;;
10007;SDS011;5043;41.766;26.204;2023-01-10T02:44:57;61.40;;;36.50;;
10007;SDS011;5043;41.766;26.204;2023-01-10T02:47:35;59.00;;;36.33;;
10007;SDS011;5043;41.766;26.204;2023-01-10T02:53:12;58.13;;;36.85;;
10007;SDS011;5043;41.766;26.204;2023-01-10T02:56:18;47.35;;;32.38;;
10007;SDS011;5043;41.766;26.204;2023-01-10T03:01:39;70.60;;;42.90;;
10007;SDS011;5043;41.766;26.204;2023-01-10T03:06:58;49.10;;;33.00;;
10007;SDS011;5043;41.766;26.204;2023-01-10T03:09:29;42.35;;;28.90;;
10007;SDS011;5043;41.766;26.204;2023-01-10T03:12:20;46.40;;;29.00;;
10007;SDS011;5043;41.766;26.204;2023-01-10T03:14:48;46.85;;;31.80;;
10007;SDS011;5043;41.766;26.204;2023-01-10T03:17:16;42.78;;;30.10;;
10007;SDS011;5043;41.766;26.204;2023-01-10T03:19:51;39.67;;;28.40;;
10007;SDS011;5043;41.766;26.204;2023-01-10T03:22:20;45.65;;;29.13;;
10007;SDS011;5043;41.766;26.204;2023-01-10T03:24:48;44.28;;;30.10;;
10007;SDS011;5043;41.766;26.204;2023-01-10T03:32:36;39.30;;;27.73;;
10007;SDS011;5043;41.766;26.204;2023-01-10T03:35:02;38.10;;;26.83;;
10007;SDS011;5043;41.766;26.204;2023-01-10T03:40:21;35.55;;;26.40;;
10007;SDS011;5043;41.766;26.204;2023-01-10T03:42:55;37.80;;;27.15;;
10007;SDS011;5043;41.766;26.204;2023-01-10T03:45:58;37.42;;;25.92;;
10007;SDS011;5043;41.766;26.204;2023-01-10T03:48:28;39.25;;;25.85;;
10007;SDS011;5043;41.766;26.204;2023-01-10T03:51:05;37.97;;;25.88;;
10007;SDS011;5043;41.766;26.204;2023-01-10T03:53:32;38.53;;;27.38;;
10007;SDS011;5043;41.766;26.204;2023-01-10T03:56:01;38.33;;;25.88;;
10007;SDS011;5043;41.766;26.204;2023-01-10T03:58:27;34.80;;;25.50;;
10007;SDS011;5043;41.766;26.204;2023-01-10T04:00:53;37.00;;;24.95;;
10007;SDS011;5043;41.766;26.204;2023-01-10T04:03:18;31.42;;;23.67;;
10007;SDS011;5043;41.766;26.204;2023-01-10T04:05:44;33.55;;;24.67;;
10007;SDS011;5043;41.766;26.204;2023-01-10T04:08:09;33.30;;;23.85;;
10007;SDS011;5043;41.766;26.204;2023-01-10T04:10:35;32.70;;;24.38;;
10007;SDS011;5043;41.766;26.204;2023-01-10T04:13:02;33.42;;;23.92;;
10007;SDS011;5043;41.766;26.204;2023-01-10T04:15:28;34.53;;;23.70;;
10007;SDS011;5043;41.766;26.204;2023-01-10T04:17:53;31.48;;;23.27;;
10007;SDS011;5043;41.766;26.204;2023-01-10T04:20:20;33.78;;;23.55;;
10007;SDS011;5043;41.766;26.204;2023-01-10T04:22:47;36.50;;;24.25;;
10007;SDS011;5043;41.766;26.204;2023-01-10T04:25:15;31.00;;;23.27;;
10007;SDS011;5043;41.766;26.204;2023-01-10T04:27:40;31.65;;;22.52;;
10007;SDS011;5043;41.766;26.204;2023-01-10T04:30:06;30.45;;;23.50;;
10007;SDS011;5043;41.766;26.204;2023-01-10T04:32:32;35.20;;;23.42;;
10007;SDS011;5043;41.766;26.204;2023-01-10T04:34:58;30.55;;;22.60;;
10007;SDS011;5043;41.766;26.204;2023-01-10T04:37:23;28.48;;;23.10;;
10007;SDS011;5043;41.766;26.204;2023-01-10T04:39:48;26.45;;;20.88;;
10007;SDS011;5043;41.766;26.204;2023-01-10T04:42:15;29.10;;;20.90;;
10007;SDS011;5043;41.766;26.204;2023-01-10T04:44:40;30.05;;;21.20;;
10007;SDS011;5043;41.766;26.204;2023-01-10T04:47:06;29.73;;;21.33;;
10007;SDS011;5043;41.766;26.204;2023-01-10T04:49:31;29.35;;;20.65;;
10007;SDS011;5043;41.766;26.204;2023-01-10T04:51:57;29.52;;;19.08;;
10007;SDS011;5043;41.766;26.204;2023-01-10T04:54:22;24.95;;;18.45;;
10007;SDS011;5043;41.766;26.204;2023-01-10T04:56:48;26.15;;;20.35;;
10007;SDS011;5043;41.766;26.204;2023-01-10T04:59:13;28.35;;;20.35;;
10007;SDS011;5043;41.766;26.204;2023-01-10T05:01:39;28.95;;;21.25;;
10007;SDS011;5043;41.766;26.204;2023-01-10T05:04:05;27.88;;;20.08;;
10007;SDS011;5043;41.766;26.204;2023-01-10T05:06:31;24.70;;;19.40;;
10007;SDS011;5043;41.766;26.204;2023-01-10T05:08:57;24.15;;;18.77;;
10007;SDS011;5043;41.766;26.204;2023-01-10T05:11:23;21.58;;;17.80;;
10007;SDS011;5043;41.766;26.204;2023-01-10T05:13:48;26.38;;;19.02;;
10007;SDS011;5043;41.766;26.204;2023-01-10T05:16:14;28.52;;;20.58;;
10007;SDS011;5043;41.766;26.204;2023-01-10T05:18:40;23.38;;;17.98;;
10007;SDS011;5043;41.766;26.204;2023-01-10T05:21:07;23.77;;;17.75;;
10007;SDS011;5043;41.766;26.204;2023-01-10T05:23:34;26.08;;;18.70;;
10007;SDS011;5043;41.766;26.204;2023-01-10T05:28:33;25.33;;;18.83;;
10007;SDS011;5043;41.766;26.204;2023-01-10T05:30:58;33.97;;;22.60;;
10007;SDS011;5043;41.766;26.204;2023-01-10T05:33:24;25.90;;;18.63;;
10007;SDS011;5043;41.766;26.204;2023-01-10T05:35:49;26.00;;;18.13;;
10007;SDS011;5043;41.766;26.204;2023-01-10T05:38:15;23.90;;;18.52;;
10007;SDS011;5043;41.766;26.204;2023-01-10T05:40:40;25.98;;;19.15;;
10007;SDS011;5043;41.766;26.204;2023-01-10T05:43:05;32.17;;;21.13;;
10007;SDS011;5043;41.766;26.204;2023-01-10T05:45:31;28.35;;;19.80;;
10007;SDS011;5043;41.766;26.204;2023-01-10T05:47:56;26.00;;;20.30;;
10007;SDS011;5043;41.766;26.204;2023-01-10T05:50:22;24.17;;;18.17;;
10007;SDS011;5043;41.766;26.204;2023-01-10T05:52:47;26.45;;;18.92;;
10007;SDS011;5043;41.766;26.204;2023-01-10T05:55:13;28.35;;;19.23;;
10007;SDS011;5043;41.766;26.204;2023-01-10T05:57:38;28.40;;;19.27;;
10007;SDS011;5043;41.766;26.204;2023-01-10T06:00:04;26.75;;;18.80;;
10007;SDS011;5043;41.766;26.204;2023-01-10T06:02:30;26.38;;;18.40;;
10007;SDS011;5043;41.766;26.204;2023-01-10T06:04:56;26.42;;;19.58;;
10007;SDS011;5043;41.766;26.204;2023-01-10T06:07:22;25.50;;;17.60;;
10007;SDS011;5043;41.766;26.204;2023-01-10T06:09:47;22.10;;;17.15;;
10007;SDS011;5043;41.766;26.204;2023-01-10T06:12:15;26.05;;;19.77;;
10007;SDS011;5043;41.766;26.204;2023-01-10T06:14:42;31.23;;;21.75;;
10007;SDS011;5043;41.766;26.204;2023-01-10T06:17:08;25.60;;;19.40;;
10007;SDS011;5043;41.766;26.204;2023-01-10T06:19:37;36.45;;;26.40;;
10007;SDS011;5043;41.766;26.204;2023-01-10T06:22:02;48.15;;;34.67;;
10007;SDS011;5043;41.766;26.204;2023-01-10T06:24:28;38.13;;;27.52;;
10007;SDS011;5043;41.766;26.204;2023-01-10T06:26:53;32.33;;;22.17;;
10007;SDS011;5043;41.766;26.204;2023-01-10T06:29:19;31.48;;;22.38;;
10007;SDS011;5043;41.766;26.204;2023-01-10T06:31:44;27.73;;;19.25;;
10007;SDS011;5043;41.766;26.204;2023-01-10T06:34:10;28.23;;;19.92;;
10007;SDS011;5043;41.766;26.204;2023-01-10T06:36:35;26.55;;;20.40;;
10007;SDS011;5043;41.766;26.204;2023-01-10T06:39:01;31.65;;;22.20;;
10007;SDS011;5043;41.766;26.204;2023-01-10T06:41:26;31.63;;;22.10;;
10007;SDS011;5043;41.766;26.204;2023-01-10T06:43:52;31.85;;;22.52;;
10007;SDS011;5043;41.766;26.204;2023-01-10T06:46:17;31.00;;;21.27;;
10007;SDS011;5043;41.766;26.204;2023-01-10T06:48:44;30.42;;;20.98;;
10007;SDS011;5043;41.766;26.204;2023-01-10T06:51:10;27.63;;;21.10;;
10007;SDS011;5043;41.766;26.204;2023-01-10T06:53:37;29.30;;;22.15;;
10007;SDS011;5043;41.766;26.204;2023-01-10T06:56:02;33.30;;;23.17;;
10007;SDS011;5043;41.766;26.204;2023-01-10T06:58:30;36.85;;;25.20;;
10007;SDS011;5043;41.766;26.204;2023-01-10T07:00:56;39.00;;;25.20;;
10007;SDS011;5043;41.766;26.204;2023-01-10T07:03:21;36.20;;;26.60;;
10007;SDS011;5043;41.766;26.204;2023-01-10T07:05:47;28.88;;;20.00;;
10007;SDS011;5043;41.766;26.204;2023-01-10T07:08:12;28.52;;;20.98;;
10007;SDS011;5043;41.766;26.204;2023-01-10T07:10:40;28.27;;;19.90;;
10007;SDS011;5043;41.766;26.204;2023-01-10T07:13:07;30.08;;;21.55;;
10007;SDS011;5043;41.766;26.204;2023-01-10T07:15:32;39.50;;;26.48;;
10007;SDS011;5043;41.766;26.204;2023-01-10T07:17:58;45.38;;;28.83;;
10007;SDS011;5043;41.766;26.204;2023-01-10T07:20:24;29.63;;;19.83;;
10007;SDS011;5043;41.766;26.204;2023-01-10T07:22:56;25.92;;;19.45;;
10007;SDS011;5043;41.766;26.204;2023-01-10T07:25:24;29.13;;;20.33;;
10007;SDS011;5043;41.766;26.204;2023-01-10T07:27:50;32.40;;;22.10;;
10007;SDS011;5043;41.766;26.204;2023-01-10T07:30:19;32.17;;;21.13;;
10007;SDS011;5043;41.766;26.204;2023-01-10T07:32:44;31.77;;;19.70;;
10007;SDS011;5043;41.766;26.204;2023-01-10T07:35:10;32.67;;;21.92;;
10007;SDS011;5043;41.766;26.204;2023-01-10T07:37:35;37.97;;;23.67;;
10007;SDS011;5043;41.766;26.204;2023-01-10T07:40:01;39.65;;;23.00;;
10007;SDS011;5043;41.766;26.204;2023-01-10T07:42:26;35.47;;;23.80;;
10007;SDS011;5043;41.766;26.204;2023-01-10T07:44:52;34.83;;;23.63;;
10007;SDS011;5043;41.766;26.204;2023-01-10T07:47:17;31.60;;;22.63;;
10007;SDS011;5043;41.766;26.204;2023-01-10T07:49:42;29.48;;;22.35;;
10007;SDS011;5043;41.766;26.204;2023-01-10T07:52:08;33.90;;;25.00;;
10007;SDS011;5043;41.766;26.204;2023-01-10T07:54:34;34.63;;;24.77;;
10007;SDS011;5043;41.766;26.204;2023-01-10T07:57:00;35.13;;;24.08;;
10007;SDS011;5043;41.766;26.204;2023-01-10T07:59:26;33.58;;;24.52;;
10007;SDS011;5043;41.766;26.204;2023-01-10T08:01:51;30.38;;;21.80;;
10007;SDS011;5043;41.766;26.204;2023-01-10T08:04:18;34.42;;;22.88;;
10007;SDS011;5043;41.766;26.204;2023-01-10T08:06:44;34.00;;;24.13;;
10007;SDS011;5043;41.766;26.204;2023-01-10T08:09:09;30.83;;;22.35;;
10007;SDS011;5043;41.766;26.204;2023-01-10T08:11:35;32.75;;;22.65;;
10007;SDS011;5043;41.766;26.204;2023-01-10T08:14:00;36.33;;;25.70;;
10007;SDS011;5043;41.766;26.204;2023-01-10T08:16:26;34.28;;;23.80;;
10007;SDS011;5043;41.766;26.204;2023-01-10T08:18:51;30.85;;;23.08;;
10007;SDS011;5043;41.766;26.204;2023-01-10T08:21:17;28.42;;;22.50;;
10007;SDS011;5043;41.766;26.204;2023-01-10T08:23:42;31.85;;;21.85;;
10007;SDS011;5043;41.766;26.204;2023-01-10T08:26:08;32.35;;;23.33;;
10007;SDS011;5043;41.766;26.204;2023-01-10T08:28:33;32.88;;;22.40;;
10007;SDS011;5043;41.766;26.204;2023-01-10T08:31:03;32.05;;;23.17;;
10007;SDS011;5043;41.766;26.204;2023-01-10T08:33:30;33.35;;;20.90;;
10007;SDS011;5043;41.766;26.204;2023-01-10T08:35:55;26.58;;;21.00;;
10007;SDS011;5043;41.766;26.204;2023-01-10T08:38:21;38.17;;;22.92;;
10007;SDS011;5043;41.766;26.204;2023-01-10T08:40:47;29.60;;;21.45;;
10007;SDS011;5043;41.766;26.204;2023-01-10T08:43:12;29.55;;;20.98;;
10007;SDS011;5043;41.766;26.204;2023-01-10T08:45:39;33.28;;;22.90;;
10007;SDS011;5043;41.766;26.204;2023-01-10T08:48:05;30.83;;;21.38;;
10007;SDS011;5043;41.766;26.204;2023-01-10T08:50:33;29.45;;;20.98;;
10007;SDS011;5043;41.766;26.204;2023-01-10T08:52:59;28.15;;;20.63;;
10007;SDS011;5043;41.766;26.204;2023-01-10T08:55:27;25.98;;;20.65;;
10007;SDS011;5043;41.766;26.204;2023-01-10T08:57:57;26.55;;;20.40;;
10007;SDS011;5043;41.766;26.204;2023-01-10T09:00:24;26.88;;;20.10;;
10007;SDS011;5043;41.766;26.204;2023-01-10T09:02:51;28.83;;;20.38;;
10007;SDS011;5043;41.766;26.204;2023-01-10T09:05:17;31.00;;;22.13;;
10007;SDS011;5043;41.766;26.204;2023-01-10T09:07:43;32.13;;;22.65;;
10007;SDS011;5043;41.766;26.204;2023-01-10T09:10:11;36.65;;;26.15;;
10007;SDS011;5043;41.766;26.204;2023-01-10T09:12:37;33.65;;;25.25;;
10007;SDS011;5043;41.766;26.204;2023-01-10T09:15:25;28.05;;;21.45;;
10007;SDS011;5043;41.766;26.204;2023-01-10T09:18:00;28.65;;;22.88;;
10007;SDS011;5043;41.766;26.204;2023-01-10T09:20:33;27.98;;;20.77;;
10007;SDS011;5043;41.766;26.204;2023-01-10T09:23:13;27.92;;;20.95;;
10007;SDS011;5043;41.766;26.204;2023-01-10T09:25:45;26.10;;;19.90;;
10007;SDS011;5043;41.766;26.204;2023-01-10T09:28:19;27.23;;;20.67;;
10007;SDS011;5043;41.766;26.204;2023-01-10T09:30:52;27.30;;;20.90;;
10007;SDS011;5043;41.766;26.204;2023-01-10T09:33:20;27.92;;;20.23;;
10007;SDS011;5043;41.766;26.204;2023-01-10T09:35:48;41.35;;;31.08;;
10007;SDS011;5043;41.766;26.204;2023-01-10T09:38:18;34.78;;;25.70;;
10007;SDS011;5043;41.766;26.204;2023-01-10T09:49:02;30.10;;;21.50;;
10007;SDS011;5043;41.766;26.204;2023-01-10T09:52:04;30.15;;;21.90;;
10007;SDS011;5043;41.766;26.204;2023-01-10T09:54:49;30.27;;;23.02;;
10007;SDS011;5043;41.766;26.204;2023-01-10T09:57:24;29.45;;;20.17;;
10007;SDS011;5043;41.766;26.204;2023-01-10T09:59:53;28.92;;;19.15;;
10007;SDS011;5043;41.766;26.204;2023-01-10T10:02:33;27.35;;;21.25;;
10007;SDS011;5043;41.766;26.204;2023-01-10T10:05:09;25.15;;;18.88;;
10007;SDS011;5043;41.766;26.204;2023-01-10T10:07:43;26.17;;;18.92;;
10007;SDS011;5043;41.766;26.204;2023-01-10T10:10:21;30.17;;;20.90;;
10007;SDS011;5043;41.766;26.204;2023-01-10T10:15:57;27.35;;;20.42;;
10007;SDS011;5043;41.766;26.204;2023-01-10T10:21:20;26.73;;;19.50;;
10007;SDS011;5043;41.766;26.204;2023-01-10T10:23:58;29.60;;;21.83;;
10007;SDS011;5043;41.766;26.204;2023-01-10T10:26:57;24.67;;;19.13;;
10007;SDS011;5043;41.766;26.204;2023-01-10T10:29:54;32.83;;;24.75;;
10007;SDS011;5043;41.766;26.204;2023-01-10T10:35:39;27.38;;;20.20;;
10007;SDS011;5043;41.766;26.204;2023-01-10T10:38:21;28.73;;;19.77;;
10007;SDS011;5043;41.766;26.204;2023-01-10T10:40:53;40.80;;;24.70;;
10007;SDS011;5043;41.766;26.204;2023-01-10T10:43:25;32.92;;;23.45;;
10007;SDS011;5043;41.766;26.204;2023-01-10T10:46:02;46.30;;;29.30;;
10007;SDS011;5043;41.766;26.204;2023-01-10T10:48:49;43.53;;;27.42;;
10007;SDS011;5043;41.766;26.204;2023-01-10T10:51:26;32.60;;;23.27;;
10007;SDS011;5043;41.766;26.204;2023-01-10T10:53:58;39.00;;;21.65;;
10007;SDS011;5043;41.766;26.204;2023-01-10T10:56:26;36.70;;;24.65;;
10007;SDS011;5043;41.766;26.204;2023-01-10T10:58:57;31.58;;;20.85;;
10007;SDS011;5043;41.766;26.204;2023-01-10T11:01:26;29.55;;;22.23;;
10007;SDS011;5043;41.766;26.204;2023-01-10T11:06:28;29.38;;;19.30;;
10007;SDS011;5043;41.766;26.204;2023-01-10T11:08:59;30.83;;;20.92;;
10007;SDS011;5043;41.766;26.204;2023-01-10T11:11:30;28.80;;;21.73;;
10007;SDS011;5043;41.766;26.204;2023-01-10T11:14:01;25.45;;;19.65;;
10007;SDS011;5043;41.766;26.204;2023-01-10T11:16:31;28.50;;;21.50;;
10007;SDS011;5043;41.766;26.204;2023-01-10T11:19:09;34.42;;;22.75;;
10007;SDS011;5043;41.766;26.204;2023-01-10T11:21:58;23.58;;;18.85;;
10007;SDS011;5043;41.766;26.204;2023-01-10T11:24:32;28.85;;;20.40;;
10007;SDS011;5043;41.766;26.204;2023-01-10T11:27:25;21.20;;;16.50;;
10007;SDS011;5043;41.766;26.204;2023-01-10T11:30:17;29.42;;;18.90;;
10007;SDS011;5043;41.766;26.204;2023-01-10T11:32:52;26.08;;;17.30;;
10007;SDS011;5043;41.766;26.204;2023-01-10T11:35:23;30.33;;;20.45;;
10007;SDS011;5043;41.766;26.204;2023-01-10T11:37:58;33.22;;;21.25;;
10007;SDS011;5043;41.766;26.204;2023-01-10T11:40:29;26.90;;;18.55;;
10007;SDS011;5043;41.766;26.204;2023-01-10T11:42:57;26.27;;;16.98;;
10007;SDS011;5043;41.766;26.204;2023-01-10T11:45:28;31.58;;;19.15;;
10007;SDS011;5043;41.766;26.204;2023-01-10T11:48:04;31.08;;;19.25;;
10007;SDS011;5043;41.766;26.204;2023-01-10T11:50:39;35.45;;;20.92;;
10007;SDS011;5043;41.766;26.204;2023-01-10T11:53:25;30.27;;;19.50;;
10007;SDS011;5043;41.766;26.204;2023-01-10T11:56:05;31.08;;;19.73;;
10007;SDS011;5043;41.766;26.204;2023-01-10T11:58:35;22.50;;;16.05;;
10007;SDS011;5043;41.766;26.204;2023-01-10T12:01:02;22.15;;;17.67;;
10007;SDS011;5043;41.766;26.204;2023-01-10T12:03:32;16.23;;;13.63;;
10007;SDS011;5043;41.766;26.204;2023-01-10T12:06:03;19.80;;;15.77;;
10007;SDS011;5043;41.766;26.204;2023-01-10T12:08:35;19.27;;;15.50;;
10007;SDS011;5043;41.766;26.204;2023-01-10T12:11:06;20.02;;;14.32;;
10007;SDS011;5043;41.766;26.204;2023-01-10T12:13:45;15.82;;;13.48;;
10007;SDS011;5043;41.766;26.204;2023-01-10T12:19:00;14.07;;;12.40;;
10007;SDS011;5043;41.766;26.204;2023-01-10T12:21:38;15.73;;;12.73;;
10007;SDS011;5043;41.766;26.204;2023-01-10T12:24:17;13.90;;;11.88;;
10007;SDS011;5043;41.766;26.204;2023-01-10T12:26:47;16.73;;;13.48;;
10007;SDS011;5043;41.766;26.204;2023-01-10T12:29:19;16.40;;;13.10;;
10007;SDS011;5043;41.766;26.204;2023-01-10T12:31:48;16.35;;;13.50;;
10007;SDS011;5043;41.766;26.204;2023-01-10T12:34:16;23.30;;;14.27;;
10007;SDS011;5043;41.766;26.204;2023-01-10T12:36:51;30.60;;;17.42;;
10007;SDS011;5043;41.766;26.204;2023-01-10T12:39:23;27.65;;;17.13;;
10007;SDS011;5043;41.766;26.204;2023-01-10T12:44:58;23.95;;;14.77;;
10007;SDS011;5043;41.766;26.204;2023-01-10T12:50:25;21.67;;;16.23;;
10007;SDS011;5043;41.766;26.204;2023-01-10T12:53:42;38.13;;;22.63;;
10007;SDS011;5043;41.766;26.204;2023-01-10T12:55:49;20.02;;;13.23;;
10007;SDS011;5043;41.766;26.204;2023-01-10T12:58:20;9.73;;;7.70;;
10007;SDS011;5043;41.766;26.204;2023-01-10T13:00:57;14.70;;;11.35;;
10007;SDS011;5043;41.766;26.204;2023-01-10T13:03:30;10.73;;;7.90;;
10007;SDS011;5043;41.766;26.204;2023-01-10T13:05:58;9.82;;;7.70;;
10007;SDS011;5043;41.766;26.204;2023-01-10T13:08:25;11.68;;;7.00;;
10007;SDS011;5043;41.766;26.204;2023-01-10T13:10:53;16.80;;;11.15;;
10007;SDS011;5043;41.766;26.204;2023-01-10T13:18:56;22.73;;;14.60;;
10007;SDS011;5043;41.766;26.204;2023-01-10T13:21:36;19.40;;;12.95;;
10007;SDS011;5043;41.766;26.204;2023-01-10T13:24:25;19.60;;;13.93;;
10007;SDS011;5043;41.766;26.204;2023-01-10T13:29:23;21.60;;;12.95;;
10007;SDS011;5043;41.766;26.204;2023-01-10T13:31:53;17.67;;;13.40;;
10007;SDS011;5043;41.766;26.204;2023-01-10T13:34:26;15.80;;;13.13;;
10007;SDS011;5043;41.766;26.204;2023-01-10T13:36:59;13.43;;;11.18;;
10007;SDS011;5043;41.766;26.204;2023-01-10T13:39:35;12.00;;;8.70;;
10007;SDS011;5043;41.766;26.204;2023-01-10T14:01:20;25.38;;;15.43;;
10007;SDS011;5043;41.766;26.204;2023-01-10T14:04:06;22.70;;;11.27;;
10007;SDS011;5043;41.766;26.204;2023-01-10T14:06:33;23.88;;;13.02;;
10007;SDS011;5043;41.766;26.204;2023-01-10T14:09:28;10.35;;;7.85;;
10007;SDS011;5043;41.766;26.204;2023-01-10T14:12:08;9.00;;;6.03;;
10007;SDS011;5043;41.766;26.204;2023-01-10T14:14:48;15.10;;;9.27;;
10007;SDS011;5043;41.766;26.204;2023-01-10T14:17:33;10.48;;;7.20;;
10007;SDS011;5043;41.766;26.204;2023-01-10T14:20:04;19.10;;;10.35;;
10007;SDS011;5043;41.766;26.204;2023-01-10T14:22:39;13.75;;;8.98;;
10007;SDS011;5043;41.766;26.204;2023-01-10T14:25:18;18.65;;;11.95;;
10007;SDS011;5043;41.766;26.204;2023-01-10T14:27:46;9.25;;;7.05;;
10007;SDS011;5043;41.766;26.204;2023-01-10T14:30:36;7.50;;;6.25;;
10007;SDS011;5043;41.766;26.204;2023-01-10T14:33:10;12.32;;;9.07;;
10007;SDS011;5043;41.766;26.204;2023-01-10T14:35:42;20.55;;;13.52;;
10007;SDS011;5043;41.766;26.204;2023-01-10T14:38:17;15.07;;;11.52;;
10007;SDS011;5043;41.766;26.204;2023-01-10T14:40:49;16.38;;;11.00;;
10007;SDS011;5043;41.766;26.204;2023-01-10T14:43:21;17.10;;;11.70;;
10007;SDS011;5043;41.766;26.204;2023-01-10T14:54:00;8.63;;;7.20;;
10007;SDS011;5043;41.766;26.204;2023-01-10T14:56:37;8.15;;;6.38;;
10007;SDS011;5043;41.766;26.204;2023-01-10T15:01:48;10.40;;;7.72;;
10007;SDS011;5043;41.766;26.204;2023-01-10T15:04:16;8.73;;;6.28;;
10007;SDS011;5043;41.766;26.204;2023-01-10T15:06:56;11.13;;;8.68;;
10007;SDS011;5043;41.766;26.204;2023-01-10T15:09:57;12.88;;;9.65;;
10007;SDS011;5043;41.766;26.204;2023-01-10T15:12:27;14.63;;;10.02;;
10007;SDS011;5043;41.766;26.204;2023-01-10T15:14:59;18.35;;;12.82;;
10007;SDS011;5043;41.766;26.204;2023-01-10T15:17:36;23.63;;;14.15;;
10007;SDS011;5043;41.766;26.204;2023-01-10T15:20:03;18.30;;;13.40;;
10007;SDS011;5043;41.766;26.204;2023-01-10T15:22:31;18.15;;;12.88;;
10007;SDS011;5043;41.766;26.204;2023-01-10T15:24:59;13.18;;;10.63;;
10007;SDS011;5043;41.766;26.204;2023-01-10T15:27:28;18.10;;;12.50;;
10007;SDS011;5043;41.766;26.204;2023-01-10T15:29:56;14.45;;;11.32;;
10007;SDS011;5043;41.766;26.204;2023-01-10T15:32:31;12.65;;;9.45;;
10007;SDS011;5043;41.766;26.204;2023-01-10T15:34:59;13.45;;;11.30;;
10007;SDS011;5043;41.766;26.204;2023-01-10T15:37:26;12.85;;;9.65;;
10007;SDS011;5043;41.766;26.204;2023-01-10T15:39:59;15.85;;;10.07;;
10007;SDS011;5043;41.766;26.204;2023-01-10T15:42:26;13.30;;;10.60;;
10007;SDS011;5043;41.766;26.204;2023-01-10T15:44:52;16.08;;;12.18;;
10007;SDS011;5043;41.766;26.204;2023-01-10T15:50:00;9.85;;;8.85;;
10007;SDS011;5043;41.766;26.204;2023-01-10T15:52:27;11.88;;;8.35;;
10007;SDS011;5043;41.766;26.204;2023-01-10T15:54:53;10.90;;;7.30;;
10007;SDS011;5043;41.766;26.204;2023-01-10T15:57:28;11.88;;;8.20;;
10007;SDS011;5043;41.766;26.204;2023-01-10T15:59:56;15.40;;;9.63;;
10007;SDS011;5043;41.766;26.204;2023-01-10T16:02:24;10.48;;;6.72;;
10007;SDS011;5043;41.766;26.204;2023-01-10T16:04:55;11.70;;;6.05;;
10007;SDS011;5043;41.766;26.204;2023-01-10T16:07:42;5.55;;;4.80;;
10007;SDS011;5043;41.766;26.204;2023-01-10T16:10:20;7.45;;;6.28;;
10007;SDS011;5043;41.766;26.204;2023-01-10T16:12:50;22.50;;;12.90;;
10007;SDS011;5043;41.766;26.204;2023-01-10T16:15:36;22.08;;;12.55;;
10007;SDS011;5043;41.766;26.204;2023-01-10T16:18:04;8.68;;;4.78;;
10007;SDS011;5043;41.766;26.204;2023-01-10T16:20:34;10.63;;;6.43;;
10007;SDS011;5043;41.766;26.204;2023-01-10T16:23:08;11.38;;;7.50;;
10007;SDS011;5043;41.766;26.204;2023-01-10T16:25:49;14.82;;;8.63;;
10007;SDS011;5043;41.766;26.204;2023-01-10T16:28:17;11.43;;;8.68;;
10007;SDS011;5043;41.766;26.204;2023-01-10T16:30:44;5.35;;;4.25;;
10007;SDS011;5043;41.766;26.204;2023-01-10T16:33:14;7.95;;;4.25;;